sensor_id;sensor_type;location;lat;lon;timestamp;P1;durP1;ratioP1;P2;durP2;ratioP2
46042;SDS011;32533;-33.854;18.542;2022-09-13T00:00:33;6.00;;;0.88;;
46042;SDS011;32533;-33.854;18.542;2022-09-13T00:03:00;4.70;;;1.13;;
46042;SDS011;32533;-33.854;18.542;2022-09-13T00:05:27;11.10;;;2.05;;
46042;SDS011;32533;-33.854;18.542;2022-09-13T00:07:54;12.40;;;1.67;;
46042;SDS011;32533;-33.854;18.542;2022-09-13T00:10:22;9.40;;;3.17;;
46042;SDS011;32533;-33.854;18.542;2022-09-13T00:12:49;3.50;;;1.00;;
46042;SDS011;32533;-33.854;18.542;2022-09-13T00:15:16;6.03;;;1.80;;
46042;SDS011;32533;-33.854;18.542;2022-09-13T00:17:43;5.05;;;1.20;;
46042;SDS011;32533;-33.854;18.542;2022-09-13T00:20:09;6.78;;;1.52;;
46042;SDS011;32533;-33.854;18.542;2022-09-13T00:22:36;8.48;;;1.65;;
46042;SDS011;32533;-33.854;18.542;2022-09-13T00:25:03;5.60;;;1.38;;
46042;SDS011;32533;-33.854;18.542;2022-09-13T00:27:33;8.68;;;1.92;;
46042;SDS011;32533;-33.854;18.542;2022-09-13T00:30:02;6.07;;;1.83;;
46042;SDS011;32533;-33.854;18.542;2022-09-13T00:32:30;11.48;;;2.17;;
46042;SDS011;32533;-33.854;18.542;2022-09-13T00:34:56;2.28;;;0.77;;
46042;SDS011;32533;-33.854;18.542;2022-09-13T00:37:23;4.20;;;1.60;;
46042;SDS011;32533;-33.854;18.542;2022-09-13T00:39:49;6.28;;;3.22;;
46042;SDS011;32533;-33.854;18.542;2022-09-13T00:42:16;5.75;;;1.52;;
46042;SDS011;32533;-33.854;18.542;2022-09-13T00:47:43;4.65;;;1.88;;
46042;SDS011;32533;-33.854;18.542;2022-09-13T00:50:36;6.68;;;1.38;;
46042;SDS011;32533;-33.854;18.542;2022-09-13T00:53:08;2.60;;;1.20;;
46042;SDS011;32533;-33.854;18.542;2022-09-13T00:55:41;6.07;;;1.40;;
46042;SDS011;32533;-33.854;18.542;2022-09-13T00:58:17;5.80;;;1.45;;
46042;SDS011;32533;-33.854;18.542;2022-09-13T01:00:48;6.72;;;3.53;;
46042;SDS011;32533;-33.854;18.542;2022-09-13T01:03:16;6.03;;;1.20;;
46042;SDS011;32533;-33.854;18.542;2022-09-13T01:05:49;6.40;;;1.35;;
46042;SDS011;32533;-33.854;18.542;2022-09-13T01:08:21;5.07;;;2.25;;
46042;SDS011;32533;-33.854;18.542;2022-09-13T01:10:50;8.63;;;2.55;;
46042;SDS011;32533;-33.854;18.542;2022-09-13T01:13:19;4.55;;;1.08;;
46042;SDS011;32533;-33.854;18.542;2022-09-13T01:15:47;8.93;;;2.20;;
46042;SDS011;32533;-33.854;18.542;2022-09-13T01:18:14;2.55;;;1.08;;
46042;SDS011;32533;-33.854;18.542;2022-09-13T01:26:00;6.20;;;1.77;;
46042;SDS011;32533;-33.854;18.542;2022-09-13T01:31:34;6.05;;;1.55;;
46042;SDS011;32533;-33.854;18.542;2022-09-13T01:34:16;3.13;;;0.90;;
46042;SDS011;32533;-33.854;18.542;2022-09-13T01:39:55;10.77;;;2.65;;
46042;SDS011;32533;-33.854;18.542;2022-09-13T01:42:47;4.93;;;1.67;;
46042;SDS011;32533;-33.854;18.542;2022-09-13T01:48:19;5.68;;;1.30;;
46042;SDS011;32533;-33.854;18.542;2022-09-13T01:51:03;11.35;;;1.60;;
46042;SDS011;32533;-33.854;18.542;2022-09-13T01:56:17;3.60;;;1.70;;
46042;SDS011;32533;-33.854;18.542;2022-09-13T01:59:03;2.05;;;0.90;;
46042;SDS011;32533;-33.854;18.542;2022-09-13T03:14:54;4.95;;;0.90;;
46042;SDS011;32533;-33.854;18.542;2022-09-13T03:17:52;2.03;;;0.70;;
46042;SDS011;32533;-33.854;18.542;2022-09-13T03:26:11;0.95;;;0.60;;
46042;SDS011;32533;-33.854;18.542;2022-09-13T03:34:09;8.07;;;0.90;;
46042;SDS011;32533;-33.854;18.542;2022-09-13T03:39:41;9.82;;;1.52;;
46042;SDS011;32533;-33.854;18.542;2022-09-13T03:42:19;4.30;;;1.30;;
46042;SDS011;32533;-33.854;18.542;2022-09-13T03:44:49;4.00;;;2.13;;
46042;SDS011;32533;-33.854;18.542;2022-09-13T03:47:19;3.97;;;2.30;;
46042;SDS011;32533;-33.854;18.542;2022-09-13T03:49:49;4.05;;;0.65;;
46042;SDS011;32533;-33.854;18.542;2022-09-13T03:52:17;4.32;;;0.88;;
46042;SDS011;32533;-33.854;18.542;2022-09-13T03:54:44;5.35;;;2.08;;
46042;SDS011;32533;-33.854;18.542;2022-09-13T03:59:44;5.80;;;0.90;;
46042;SDS011;32533;-33.854;18.542;2022-09-13T04:02:13;2.90;;;1.35;;
46042;SDS011;32533;-33.854;18.542;2022-09-13T04:04:41;3.30;;;1.27;;
46042;SDS011;32533;-33.854;18.542;2022-09-13T04:07:09;2.95;;;0.60;;
46042;SDS011;32533;-33.854;18.542;2022-09-13T04:09:37;1.58;;;0.73;;
46042;SDS011;32533;-33.854;18.542;2022-09-13T04:12:04;7.15;;;1.08;;
46042;SDS011;32533;-33.854;18.542;2022-09-13T04:14:31;4.07;;;0.60;;
46042;SDS011;32533;-33.854;18.542;2022-09-13T04:16:57;2.10;;;0.65;;
46042;SDS011;32533;-33.854;18.542;2022-09-13T04:19:25;2.90;;;0.60;;
46042;SDS011;32533;-33.854;18.542;2022-09-13T04:21:52;7.68;;;5.20;;
46042;SDS011;32533;-33.854;18.542;2022-09-13T04:24:20;12.93;;;7.05;;
46042;SDS011;32533;-33.854;18.542;2022-09-13T04:26:51;9.82;;;4.53;;
46042;SDS011;32533;-33.854;18.542;2022-09-13T04:29:19;11.18;;;2.75;;
46042;SDS011;32533;-33.854;18.542;2022-09-13T04:31:47;17.20;;;2.47;;
46042;SDS011;32533;-33.854;18.542;2022-09-13T04:34:14;2.83;;;1.38;;
46042;SDS011;32533;-33.854;18.542;2022-09-13T04:36:46;4.03;;;1.25;;
46042;SDS011;32533;-33.854;18.542;2022-09-13T04:39:14;3.22;;;0.88;;
46042;SDS011;32533;-33.854;18.542;2022-09-13T04:41:41;6.28;;;1.38;;
46042;SDS011;32533;-33.854;18.542;2022-09-13T04:44:10;7.28;;;1.45;;
46042;SDS011;32533;-33.854;18.542;2022-09-13T04:46:37;3.55;;;1.13;;
46042;SDS011;32533;-33.854;18.542;2022-09-13T04:49:03;3.38;;;1.13;;
46042;SDS011;32533;-33.854;18.542;2022-09-13T04:51:32;1.67;;;0.73;;
46042;SDS011;32533;-33.854;18.542;2022-09-13T04:54:03;3.70;;;1.60;;
46042;SDS011;32533;-33.854;18.542;2022-09-13T04:56:33;1.10;;;0.63;;
46042;SDS011;32533;-33.854;18.542;2022-09-13T04:59:00;3.78;;;1.05;;
46042;SDS011;32533;-33.854;18.542;2022-09-13T05:01:26;2.45;;;0.60;;
46042;SDS011;32533;-33.854;18.542;2022-09-13T05:03:53;1.55;;;1.05;;
46042;SDS011;32533;-33.854;18.542;2022-09-13T05:06:20;3.22;;;1.55;;
46042;SDS011;32533;-33.854;18.542;2022-09-13T05:08:53;1.58;;;0.85;;
46042;SDS011;32533;-33.854;18.542;2022-09-13T05:11:25;4.20;;;1.23;;
46042;SDS011;32533;-33.854;18.542;2022-09-13T05:13:53;1.13;;;0.73;;
46042;SDS011;32533;-33.854;18.542;2022-09-13T05:16:26;4.60;;;1.65;;
46042;SDS011;32533;-33.854;18.542;2022-09-13T05:18:54;2.67;;;0.77;;
46042;SDS011;32533;-33.854;18.542;2022-09-13T05:21:21;7.07;;;2.22;;
46042;SDS011;32533;-33.854;18.542;2022-09-13T05:23:48;5.22;;;1.20;;
46042;SDS011;32533;-33.854;18.542;2022-09-13T05:26:16;0.65;;;0.60;;
46042;SDS011;32533;-33.854;18.542;2022-09-13T05:28:43;2.47;;;1.42;;
46042;SDS011;32533;-33.854;18.542;2022-09-13T05:31:12;4.47;;;1.00;;
46042;SDS011;32533;-33.854;18.542;2022-09-13T05:33:45;2.70;;;1.67;;
46042;SDS011;32533;-33.854;18.542;2022-09-13T05:36:17;3.90;;;1.33;;
46042;SDS011;32533;-33.854;18.542;2022-09-13T05:38:43;4.15;;;1.30;;
46042;SDS011;32533;-33.854;18.542;2022-09-13T05:41:10;2.05;;;1.33;;
46042;SDS011;32533;-33.854;18.542;2022-09-13T05:43:36;4.57;;;1.02;;
46042;SDS011;32533;-33.854;18.542;2022-09-13T05:46:04;3.15;;;0.80;;
46042;SDS011;32533;-33.854;18.542;2022-09-13T05:48:31;9.05;;;1.17;;
46042;SDS011;32533;-33.854;18.542;2022-09-13T05:53:36;1.30;;;0.88;;
46042;SDS011;32533;-33.854;18.542;2022-09-13T05:56:04;5.85;;;1.25;;
46042;SDS011;32533;-33.854;18.542;2022-09-13T05:58:32;2.40;;;0.90;;
46042;SDS011;32533;-33.854;18.542;2022-09-13T06:00:59;3.55;;;1.05;;
46042;SDS011;32533;-33.854;18.542;2022-09-13T06:03:26;7.47;;;1.23;;
46042;SDS011;32533;-33.854;18.542;2022-09-13T06:05:55;3.67;;;1.08;;
46042;SDS011;32533;-33.854;18.542;2022-09-13T06:08:26;1.58;;;1.00;;
46042;SDS011;32533;-33.854;18.542;2022-09-13T06:10:55;4.05;;;0.80;;
46042;SDS011;32533;-33.854;18.542;2022-09-13T06:13:26;3.65;;;0.70;;
46042;SDS011;32533;-33.854;18.542;2022-09-13T06:15:53;3.00;;;0.80;;
46042;SDS011;32533;-33.854;18.542;2022-09-13T06:18:21;0.82;;;0.60;;
46042;SDS011;32533;-33.854;18.542;2022-09-13T06:20:49;4.50;;;1.10;;
46042;SDS011;32533;-33.854;18.542;2022-09-13T06:23:16;3.05;;;1.17;;
46042;SDS011;32533;-33.854;18.542;2022-09-13T06:25:42;1.83;;;1.73;;
46042;SDS011;32533;-33.854;18.542;2022-09-13T06:28:09;2.08;;;0.63;;
46042;SDS011;32533;-33.854;18.542;2022-09-13T06:30:35;1.15;;;0.60;;
46042;SDS011;32533;-33.854;18.542;2022-09-13T06:33:02;3.05;;;0.73;;
46042;SDS011;32533;-33.854;18.542;2022-09-13T06:35:28;2.10;;;0.93;;
46042;SDS011;32533;-33.854;18.542;2022-09-13T06:37:55;2.60;;;1.50;;
46042;SDS011;32533;-33.854;18.542;2022-09-13T06:40:23;2.92;;;0.70;;
46042;SDS011;32533;-33.854;18.542;2022-09-13T06:42:50;2.05;;;0.70;;
46042;SDS011;32533;-33.854;18.542;2022-09-13T06:45:16;3.25;;;1.05;;
46042;SDS011;32533;-33.854;18.542;2022-09-13T06:47:43;2.08;;;0.55;;
46042;SDS011;32533;-33.854;18.542;2022-09-13T06:50:09;1.70;;;1.02;;
46042;SDS011;32533;-33.854;18.542;2022-09-13T06:52:36;1.02;;;0.80;;
46042;SDS011;32533;-33.854;18.542;2022-09-13T06:55:03;0.95;;;0.82;;
46042;SDS011;32533;-33.854;18.542;2022-09-13T06:57:30;1.77;;;0.70;;
46042;SDS011;32533;-33.854;18.542;2022-09-13T06:59:56;2.25;;;1.15;;
46042;SDS011;32533;-33.854;18.542;2022-09-13T07:02:23;4.32;;;0.95;;
46042;SDS011;32533;-33.854;18.542;2022-09-13T07:04:49;2.83;;;0.52;;
46042;SDS011;32533;-33.854;18.542;2022-09-13T07:07:16;9.50;;;1.95;;
46042;SDS011;32533;-33.854;18.542;2022-09-13T07:09:43;3.47;;;0.80;;
46042;SDS011;32533;-33.854;18.542;2022-09-13T07:12:10;2.17;;;0.57;;
46042;SDS011;32533;-33.854;18.542;2022-09-13T07:14:36;1.17;;;0.38;;
46042;SDS011;32533;-33.854;18.542;2022-09-13T07:17:03;1.25;;;0.93;;
46042;SDS011;32533;-33.854;18.542;2022-09-13T07:19:29;0.85;;;0.32;;
46042;SDS011;32533;-33.854;18.542;2022-09-13T07:21:56;1.63;;;1.17;;
46042;SDS011;32533;-33.854;18.542;2022-09-13T07:24:22;4.45;;;0.80;;
46042;SDS011;32533;-33.854;18.542;2022-09-13T07:26:50;2.75;;;1.58;;
46042;SDS011;32533;-33.854;18.542;2022-09-13T07:29:17;0.40;;;0.32;;
46042;SDS011;32533;-33.854;18.542;2022-09-13T07:31:47;2.05;;;0.47;;
46042;SDS011;32533;-33.854;18.542;2022-09-13T07:34:16;4.00;;;1.15;;
46042;SDS011;32533;-33.854;18.542;2022-09-13T07:36:44;2.78;;;0.60;;
46042;SDS011;32533;-33.854;18.542;2022-09-13T07:39:12;1.02;;;0.40;;
46042;SDS011;32533;-33.854;18.542;2022-09-13T07:41:38;0.95;;;0.77;;
46042;SDS011;32533;-33.854;18.542;2022-09-13T07:44:05;1.83;;;0.70;;
46042;SDS011;32533;-33.854;18.542;2022-09-13T07:46:34;1.25;;;0.40;;
46042;SDS011;32533;-33.854;18.542;2022-09-13T07:49:04;2.05;;;0.82;;
46042;SDS011;32533;-33.854;18.542;2022-09-13T07:51:32;1.20;;;0.30;;
46042;SDS011;32533;-33.854;18.542;2022-09-13T07:54:01;1.48;;;0.68;;
46042;SDS011;32533;-33.854;18.542;2022-09-13T07:56:33;1.10;;;0.35;;
46042;SDS011;32533;-33.854;18.542;2022-09-13T07:59:03;0.73;;;0.40;;
46042;SDS011;32533;-33.854;18.542;2022-09-13T08:01:35;2.60;;;0.40;;
46042;SDS011;32533;-33.854;18.542;2022-09-13T08:04:04;3.05;;;0.30;;
46042;SDS011;32533;-33.854;18.542;2022-09-13T08:06:33;0.68;;;0.60;;
46042;SDS011;32533;-33.854;18.542;2022-09-13T08:09:01;1.75;;;0.50;;
46042;SDS011;32533;-33.854;18.542;2022-09-13T08:11:30;1.63;;;1.00;;
46042;SDS011;32533;-33.854;18.542;2022-09-13T08:14:02;2.10;;;1.13;;
46042;SDS011;32533;-33.854;18.542;2022-09-13T08:16:30;2.33;;;0.60;;
46042;SDS011;32533;-33.854;18.542;2022-09-13T08:19:01;1.20;;;0.32;;
46042;SDS011;32533;-33.854;18.542;2022-09-13T08:21:35;2.00;;;0.60;;
46042;SDS011;32533;-33.854;18.542;2022-09-13T08:24:03;0.75;;;0.50;;
46042;SDS011;32533;-33.854;18.542;2022-09-13T08:26:31;0.73;;;0.43;;
46042;SDS011;32533;-33.854;18.542;2022-09-13T08:29:01;4.05;;;0.65;;
46042;SDS011;32533;-33.854;18.542;2022-09-13T08:31:29;6.00;;;0.90;;
46042;SDS011;32533;-33.854;18.542;2022-09-13T08:33:56;3.42;;;0.70;;
46042;SDS011;32533;-33.854;18.542;2022-09-13T08:36:24;4.65;;;0.85;;
46042;SDS011;32533;-33.854;18.542;2022-09-13T08:38:53;3.78;;;1.20;;
46042;SDS011;32533;-33.854;18.542;2022-09-13T08:44:30;2.05;;;0.60;;
46042;SDS011;32533;-33.854;18.542;2022-09-13T08:47:07;5.95;;;1.15;;
46042;SDS011;32533;-33.854;18.542;2022-09-13T08:49:49;2.42;;;0.63;;
46042;SDS011;32533;-33.854;18.542;2022-09-13T08:55:50;2.40;;;0.82;;
46042;SDS011;32533;-33.854;18.542;2022-09-13T09:01:03;0.98;;;0.50;;
46042;SDS011;32533;-33.854;18.542;2022-09-13T09:06:32;3.65;;;1.48;;
46042;SDS011;32533;-33.854;18.542;2022-09-13T09:09:04;4.78;;;0.77;;
46042;SDS011;32533;-33.854;18.542;2022-09-13T09:11:41;5.32;;;1.00;;
46042;SDS011;32533;-33.854;18.542;2022-09-13T09:14:29;4.18;;;1.58;;
46042;SDS011;32533;-33.854;18.542;2022-09-13T09:17:07;10.68;;;1.02;;
46042;SDS011;32533;-33.854;18.542;2022-09-13T09:22:31;2.65;;;0.80;;
46042;SDS011;32533;-33.854;18.542;2022-09-13T09:25:00;2.33;;;0.90;;
46042;SDS011;32533;-33.854;18.542;2022-09-13T09:27:28;5.25;;;1.08;;
46042;SDS011;32533;-33.854;18.542;2022-09-13T09:29:55;0.88;;;0.50;;
46042;SDS011;32533;-33.854;18.542;2022-09-13T09:38:01;6.20;;;0.98;;
46042;SDS011;32533;-33.854;18.542;2022-09-13T09:40:48;2.95;;;0.90;;
46042;SDS011;32533;-33.854;18.542;2022-09-13T09:43:23;3.45;;;1.30;;
46042;SDS011;32533;-33.854;18.542;2022-09-13T09:45:57;8.77;;;1.42;;
46042;SDS011;32533;-33.854;18.542;2022-09-13T09:48:28;2.20;;;0.90;;
46042;SDS011;32533;-33.854;18.542;2022-09-13T09:51:01;2.92;;;0.80;;
46042;SDS011;32533;-33.854;18.542;2022-09-13T09:53:33;1.75;;;0.80;;
46042;SDS011;32533;-33.854;18.542;2022-09-13T09:58:45;5.72;;;1.27;;
46042;SDS011;32533;-33.854;18.542;2022-09-13T10:01:25;1.85;;;1.00;;
46042;SDS011;32533;-33.854;18.542;2022-09-13T10:06:40;5.20;;;0.57;;
46042;SDS011;32533;-33.854;18.542;2022-09-13T12:17:52;4.97;;;1.75;;
46042;SDS011;32533;-33.854;18.542;2022-09-13T12:20:29;3.58;;;1.35;;
46042;SDS011;32533;-33.854;18.542;2022-09-13T12:23:05;5.53;;;1.98;;
46042;SDS011;32533;-33.854;18.542;2022-09-13T12:25:45;7.43;;;1.63;;
46042;SDS011;32533;-33.854;18.542;2022-09-13T12:30:51;5.80;;;1.55;;
46042;SDS011;32533;-33.854;18.542;2022-09-13T12:33:24;7.78;;;1.42;;
46042;SDS011;32533;-33.854;18.542;2022-09-13T12:35:59;5.60;;;1.58;;
46042;SDS011;32533;-33.854;18.542;2022-09-13T12:38:34;5.60;;;1.65;;
46042;SDS011;32533;-33.854;18.542;2022-09-13T12:46:58;3.20;;;0.98;;
46042;SDS011;32533;-33.854;18.542;2022-09-13T12:49:31;5.07;;;1.23;;
46042;SDS011;32533;-33.854;18.542;2022-09-13T12:57:52;2.25;;;1.20;;
46042;SDS011;32533;-33.854;18.542;2022-09-13T13:03:42;2.03;;;1.20;;
46042;SDS011;32533;-33.854;18.542;2022-09-13T13:08:52;4.40;;;1.23;;
46042;SDS011;32533;-33.854;18.542;2022-09-13T13:11:25;2.70;;;1.13;;
46042;SDS011;32533;-33.854;18.542;2022-09-13T13:13:57;2.03;;;1.30;;
46042;SDS011;32533;-33.854;18.542;2022-09-13T13:16:37;4.60;;;1.42;;
46042;SDS011;32533;-33.854;18.542;2022-09-13T13:19:32;9.70;;;1.20;;
46042;SDS011;32533;-33.854;18.542;2022-09-13T13:27:56;6.00;;;1.30;;
46042;SDS011;32533;-33.854;18.542;2022-09-13T13:33:25;4.88;;;1.23;;
46042;SDS011;32533;-33.854;18.542;2022-09-13T13:35:53;4.53;;;1.23;;
46042;SDS011;32533;-33.854;18.542;2022-09-13T13:41:51;3.67;;;1.30;;
46042;SDS011;32533;-33.854;18.542;2022-09-13T13:46:47;6.90;;;1.58;;
46042;SDS011;32533;-33.854;18.542;2022-09-13T13:57:23;7.97;;;1.17;;
46042;SDS011;32533;-33.854;18.542;2022-09-13T14:05:16;2.55;;;1.13;;
46042;SDS011;32533;-33.854;18.542;2022-09-13T14:08:25;5.95;;;1.30;;
46042;SDS011;32533;-33.854;18.542;2022-09-13T14:21:31;5.10;;;0.73;;
46042;SDS011;32533;-33.854;18.542;2022-09-13T14:24:17;7.43;;;1.00;;
46042;SDS011;32533;-33.854;18.542;2022-09-13T14:26:51;2.15;;;1.10;;
46042;SDS011;32533;-33.854;18.542;2022-09-13T14:29:22;4.28;;;1.10;;
46042;SDS011;32533;-33.854;18.542;2022-09-13T14:31:53;9.50;;;1.10;;
46042;SDS011;32533;-33.854;18.542;2022-09-13T14:34:28;1.65;;;0.85;;
46042;SDS011;32533;-33.854;18.542;2022-09-13T14:36:58;2.15;;;0.80;;
46042;SDS011;32533;-33.854;18.542;2022-09-13T14:39:26;2.58;;;0.85;;
46042;SDS011;32533;-33.854;18.542;2022-09-13T14:41:57;9.15;;;1.85;;
46042;SDS011;32533;-33.854;18.542;2022-09-13T14:44:26;8.18;;;2.70;;
46042;SDS011;32533;-33.854;18.542;2022-09-13T14:46:58;5.25;;;0.93;;
46042;SDS011;32533;-33.854;18.542;2022-09-13T14:49:34;3.10;;;0.77;;
46042;SDS011;32533;-33.854;18.542;2022-09-13T14:52:08;5.30;;;1.48;;
46042;SDS011;32533;-33.854;18.542;2022-09-13T14:54:43;4.32;;;1.65;;
46042;SDS011;32533;-33.854;18.542;2022-09-13T14:57:20;2.17;;;0.80;;
46042;SDS011;32533;-33.854;18.542;2022-09-13T14:59:54;5.18;;;1.50;;
46042;SDS011;32533;-33.854;18.542;2022-09-13T15:02:24;4.57;;;0.95;;
46042;SDS011;32533;-33.854;18.542;2022-09-13T15:04:55;2.25;;;1.08;;
46042;SDS011;32533;-33.854;18.542;2022-09-13T15:07:28;20.83;;;1.90;;
46042;SDS011;32533;-33.854;18.542;2022-09-13T15:10:04;5.57;;;1.30;;
46042;SDS011;32533;-33.854;18.542;2022-09-13T15:12:36;8.73;;;1.77;;
46042;SDS011;32533;-33.854;18.542;2022-09-13T15:15:32;6.07;;;1.35;;
46042;SDS011;32533;-33.854;18.542;2022-09-13T15:21:00;6.75;;;1.70;;
46042;SDS011;32533;-33.854;18.542;2022-09-13T15:23:34;2.70;;;1.70;;
46042;SDS011;32533;-33.854;18.542;2022-09-13T15:26:08;5.13;;;1.40;;
46042;SDS011;32533;-33.854;18.542;2022-09-13T15:31:22;4.72;;;1.65;;
46042;SDS011;32533;-33.854;18.542;2022-09-13T15:36:36;8.60;;;2.05;;
46042;SDS011;32533;-33.854;18.542;2022-09-13T15:39:12;6.95;;;1.40;;
46042;SDS011;32533;-33.854;18.542;2022-09-13T15:41:54;7.57;;;1.67;;
46042;SDS011;32533;-33.854;18.542;2022-09-13T15:44:27;8.68;;;1.50;;
46042;SDS011;32533;-33.854;18.542;2022-09-13T15:46:57;6.68;;;1.25;;
46042;SDS011;32533;-33.854;18.542;2022-09-13T15:49:26;6.47;;;2.35;;
46042;SDS011;32533;-33.854;18.542;2022-09-13T15:51:55;18.55;;;8.90;;
46042;SDS011;32533;-33.854;18.542;2022-09-13T15:54:37;12.10;;;7.47;;
46042;SDS011;32533;-33.854;18.542;2022-09-13T15:57:09;12.30;;;3.75;;
46042;SDS011;32533;-33.854;18.542;2022-09-13T15:59:42;7.18;;;2.60;;
46042;SDS011;32533;-33.854;18.542;2022-09-13T16:02:27;5.07;;;2.50;;
46042;SDS011;32533;-33.854;18.542;2022-09-13T16:04:57;7.13;;;2.50;;
46042;SDS011;32533;-33.854;18.542;2022-09-13T16:07:24;11.07;;;2.25;;
46042;SDS011;32533;-33.854;18.542;2022-09-13T16:09:51;7.13;;;1.55;;
46042;SDS011;32533;-33.854;18.542;2022-09-13T16:12:18;8.15;;;1.65;;
46042;SDS011;32533;-33.854;18.542;2022-09-13T16:14:48;5.45;;;1.30;;
46042;SDS011;32533;-33.854;18.542;2022-09-13T16:19:44;5.65;;;1.42;;
46042;SDS011;32533;-33.854;18.542;2022-09-13T16:22:11;4.70;;;1.80;;
46042;SDS011;32533;-33.854;18.542;2022-09-13T16:24:39;7.68;;;3.35;;
46042;SDS011;32533;-33.854;18.542;2022-09-13T16:27:06;3.50;;;2.08;;
46042;SDS011;32533;-33.854;18.542;2022-09-13T16:29:36;7.07;;;2.17;;
46042;SDS011;32533;-33.854;18.542;2022-09-13T16:32:03;7.47;;;1.67;;
46042;SDS011;32533;-33.854;18.542;2022-09-13T16:34:30;8.32;;;1.92;;
46042;SDS011;32533;-33.854;18.542;2022-09-13T16:36:56;6.88;;;1.90;;
46042;SDS011;32533;-33.854;18.542;2022-09-13T16:39:23;6.88;;;2.03;;
46042;SDS011;32533;-33.854;18.542;2022-09-13T16:41:49;4.65;;;1.90;;
46042;SDS011;32533;-33.854;18.542;2022-09-13T16:44:16;8.73;;;2.53;;
46042;SDS011;32533;-33.854;18.542;2022-09-13T16:46:42;8.30;;;2.25;;
46042;SDS011;32533;-33.854;18.542;2022-09-13T16:49:09;10.65;;;1.75;;
46042;SDS011;32533;-33.854;18.542;2022-09-13T16:51:35;13.88;;;3.78;;
46042;SDS011;32533;-33.854;18.542;2022-09-13T16:54:02;7.18;;;1.40;;
46042;SDS011;32533;-33.854;18.542;2022-09-13T16:56:29;7.13;;;2.03;;
46042;SDS011;32533;-33.854;18.542;2022-09-13T16:58:56;12.95;;;3.63;;
46042;SDS011;32533;-33.854;18.542;2022-09-13T17:01:24;18.85;;;10.20;;
46042;SDS011;32533;-33.854;18.542;2022-09-13T17:03:52;15.65;;;9.82;;
46042;SDS011;32533;-33.854;18.542;2022-09-13T17:06:19;11.85;;;6.60;;
46042;SDS011;32533;-33.854;18.542;2022-09-13T17:08:51;7.30;;;2.50;;
46042;SDS011;32533;-33.854;18.542;2022-09-13T17:11:20;7.30;;;2.90;;
46042;SDS011;32533;-33.854;18.542;2022-09-13T17:13:48;7.78;;;2.60;;
46042;SDS011;32533;-33.854;18.542;2022-09-13T17:16:19;6.78;;;2.65;;
46042;SDS011;32533;-33.854;18.542;2022-09-13T17:18:46;11.00;;;3.47;;
46042;SDS011;32533;-33.854;18.542;2022-09-13T17:21:12;7.80;;;2.17;;
46042;SDS011;32533;-33.854;18.542;2022-09-13T17:23:39;6.47;;;1.55;;
46042;SDS011;32533;-33.854;18.542;2022-09-13T17:26:05;10.63;;;2.65;;
46042;SDS011;32533;-33.854;18.542;2022-09-13T17:28:32;10.45;;;3.33;;
46042;SDS011;32533;-33.854;18.542;2022-09-13T17:31:00;9.75;;;3.08;;
46042;SDS011;32533;-33.854;18.542;2022-09-13T17:33:27;6.60;;;3.78;;
46042;SDS011;32533;-33.854;18.542;2022-09-13T17:35:57;16.40;;;9.35;;
46042;SDS011;32533;-33.854;18.542;2022-09-13T17:38:25;13.85;;;8.10;;
46042;SDS011;32533;-33.854;18.542;2022-09-13T17:40:59;13.57;;;5.97;;
46042;SDS011;32533;-33.854;18.542;2022-09-13T17:43:26;10.53;;;3.70;;
46042;SDS011;32533;-33.854;18.542;2022-09-13T17:45:53;5.43;;;2.97;;
46042;SDS011;32533;-33.854;18.542;2022-09-13T17:48:20;9.10;;;2.55;;
46042;SDS011;32533;-33.854;18.542;2022-09-13T17:50:46;9.75;;;3.15;;
46042;SDS011;32533;-33.854;18.542;2022-09-13T17:53:13;8.32;;;2.47;;
46042;SDS011;32533;-33.854;18.542;2022-09-13T17:55:46;8.35;;;2.70;;
46042;SDS011;32533;-33.854;18.542;2022-09-13T17:58:16;8.10;;;2.40;;
46042;SDS011;32533;-33.854;18.542;2022-09-13T18:00:42;8.52;;;2.47;;
46042;SDS011;32533;-33.854;18.542;2022-09-13T20:15:06;7.68;;;3.28;;
46042;SDS011;32533;-33.854;18.542;2022-09-13T20:17:33;7.82;;;3.38;;
46042;SDS011;32533;-33.854;18.542;2022-09-13T20:20:02;7.45;;;2.95;;
46042;SDS011;32533;-33.854;18.542;2022-09-13T20:22:29;5.82;;;2.47;;
46042;SDS011;32533;-33.854;18.542;2022-09-13T20:24:55;13.27;;;3.92;;
46042;SDS011;32533;-33.854;18.542;2022-09-13T20:27:22;9.05;;;2.78;;
46042;SDS011;32533;-33.854;18.542;2022-09-13T20:29:48;13.00;;;3.25;;
46042;SDS011;32533;-33.854;18.542;2022-09-13T20:32:15;12.32;;;3.33;;
46042;SDS011;32533;-33.854;18.542;2022-09-13T20:34:42;7.05;;;3.35;;
46042;SDS011;32533;-33.854;18.542;2022-09-13T20:37:12;11.20;;;3.13;;
46042;SDS011;32533;-33.854;18.542;2022-09-13T20:39:38;9.55;;;2.75;;
46042;SDS011;32533;-33.854;18.542;2022-09-13T20:42:05;7.05;;;3.03;;
46042;SDS011;32533;-33.854;18.542;2022-09-13T20:44:31;9.98;;;4.22;;
46042;SDS011;32533;-33.854;18.542;2022-09-13T20:46:58;10.70;;;4.22;;
46042;SDS011;32533;-33.854;18.542;2022-09-13T20:49:24;11.32;;;3.05;;
46042;SDS011;32533;-33.854;18.542;2022-09-13T20:51:51;7.10;;;2.95;;
46042;SDS011;32533;-33.854;18.542;2022-09-13T20:54:17;10.50;;;3.15;;
46042;SDS011;32533;-33.854;18.542;2022-09-13T20:56:44;9.73;;;3.95;;
46042;SDS011;32533;-33.854;18.542;2022-09-13T20:59:10;6.50;;;2.70;;
46042;SDS011;32533;-33.854;18.542;2022-09-13T21:01:37;9.68;;;3.60;;
46042;SDS011;32533;-33.854;18.542;2022-09-13T21:04:03;6.43;;;2.58;;
46042;SDS011;32533;-33.854;18.542;2022-09-13T21:06:36;7.63;;;3.65;;
46042;SDS011;32533;-33.854;18.542;2022-09-13T21:09:24;6.35;;;2.63;;
46042;SDS011;32533;-33.854;18.542;2022-09-13T21:11:50;6.47;;;2.42;;
46042;SDS011;32533;-33.854;18.542;2022-09-13T21:14:17;9.00;;;3.40;;
46042;SDS011;32533;-33.854;18.542;2022-09-13T21:16:43;12.60;;;3.47;;
46042;SDS011;32533;-33.854;18.542;2022-09-13T21:19:10;10.23;;;3.15;;
46042;SDS011;32533;-33.854;18.542;2022-09-13T21:21:38;8.50;;;3.20;;
46042;SDS011;32533;-33.854;18.542;2022-09-13T21:24:07;8.93;;;2.92;;
46042;SDS011;32533;-33.854;18.542;2022-09-13T21:26:36;7.45;;;3.80;;
46042;SDS011;32533;-33.854;18.542;2022-09-13T21:29:06;7.10;;;3.00;;
46042;SDS011;32533;-33.854;18.542;2022-09-13T21:31:36;13.57;;;4.15;;
46042;SDS011;32533;-33.854;18.542;2022-09-13T21:34:04;7.22;;;3.83;;
46042;SDS011;32533;-33.854;18.542;2022-09-13T21:36:33;9.52;;;3.40;;
46042;SDS011;32533;-33.854;18.542;2022-09-13T21:39:00;8.00;;;2.47;;
46042;SDS011;32533;-33.854;18.542;2022-09-13T21:41:27;5.85;;;2.85;;
46042;SDS011;32533;-33.854;18.542;2022-09-13T21:43:54;9.13;;;2.90;;
46042;SDS011;32533;-33.854;18.542;2022-09-13T21:46:23;5.75;;;1.73;;
46042;SDS011;32533;-33.854;18.542;2022-09-13T21:48:51;5.25;;;2.03;;
46042;SDS011;32533;-33.854;18.542;2022-09-13T21:51:21;4.25;;;1.90;;
46042;SDS011;32533;-33.854;18.542;2022-09-13T21:53:50;5.80;;;2.38;;
46042;SDS011;32533;-33.854;18.542;2022-09-13T21:56:19;5.90;;;1.80;;
46042;SDS011;32533;-33.854;18.542;2022-09-13T21:59:21;3.15;;;1.55;;
46042;SDS011;32533;-33.854;18.542;2022-09-13T22:01:41;2.70;;;1.80;;
46042;SDS011;32533;-33.854;18.542;2022-09-13T22:04:11;6.20;;;3.17;;
46042;SDS011;32533;-33.854;18.542;2022-09-13T22:06:42;5.00;;;1.65;;
46042;SDS011;32533;-33.854;18.542;2022-09-13T22:09:09;6.05;;;2.47;;
46042;SDS011;32533;-33.854;18.542;2022-09-13T22:11:38;2.85;;;1.58;;
46042;SDS011;32533;-33.854;18.542;2022-09-13T22:14:08;3.85;;;1.67;;
46042;SDS011;32533;-33.854;18.542;2022-09-13T22:16:38;10.05;;;1.50;;
46042;SDS011;32533;-33.854;18.542;2022-09-13T22:19:06;4.90;;;2.22;;
46042;SDS011;32533;-33.854;18.542;2022-09-13T22:21:48;4.28;;;2.50;;
46042;SDS011;32533;-33.854;18.542;2022-09-13T22:24:19;8.50;;;1.95;;
46042;SDS011;32533;-33.854;18.542;2022-09-13T22:26:47;7.00;;;1.50;;